sensor_id;sensor_type;location;lat;lon;timestamp;temperature;humidity
38798;SHT11;24546;52.240;16.826;2022-12-20T00:01:34;3.30;99.90
38798;SHT11;24546;52.240;16.826;2022-12-20T00:06:36;3.40;99.90
38798;SHT11;24546;52.240;16.826;2022-12-20T00:11:39;3.40;99.90
38798;SHT11;24546;52.240;16.826;2022-12-20T00:16:40;3.40;99.90
38798;SHT11;24546;52.240;16.826;2022-12-20T00:21:42;3.50;99.90
38798;SHT11;24546;52.240;16.826;2022-12-20T00:26:43;3.50;99.90
38798;SHT11;24546;52.240;16.826;2022-12-20T00:31:44;3.40;99.90
38798;SHT11;24546;52.240;16.826;2022-12-20T00:36:45;3.50;99.90
38798;SHT11;24546;52.240;16.826;2022-12-20T00:41:46;3.50;99.90
38798;SHT11;24546;52.240;16.826;2022-12-20T00:46:47;3.50;99.90
38798;SHT11;24546;52.240;16.826;2022-12-20T00:51:48;3.50;99.90
38798;SHT11;24546;52.240;16.826;2022-12-20T00:56:49;3.50;99.90
38798;SHT11;24546;52.240;16.826;2022-12-20T01:01:50;3.50;99.90
38798;SHT11;24546;52.240;16.826;2022-12-20T01:06:54;3.50;99.90
38798;SHT11;24546;52.240;16.826;2022-12-20T01:11:55;3.50;99.90
38798;SHT11;24546;52.240;16.826;2022-12-20T01:16:56;3.40;99.90
38798;SHT11;24546;52.240;16.826;2022-12-20T01:21:58;3.50;99.90
38798;SHT11;24546;52.240;16.826;2022-12-20T01:26:59;3.50;99.90
38798;SHT11;24546;52.240;16.826;2022-12-20T01:32:00;3.50;99.90
38798;SHT11;24546;52.240;16.826;2022-12-20T01:37:01;3.40;99.90
38798;SHT11;24546;52.240;16.826;2022-12-20T01:42:02;3.30;99.90
38798;SHT11;24546;52.240;16.826;2022-12-20T01:47:03;3.40;99.90
38798;SHT11;24546;52.240;16.826;2022-12-20T01:52:05;3.50;99.90
38798;SHT11;24546;52.240;16.826;2022-12-20T01:57:11;3.40;99.90
38798;SHT11;24546;52.240;16.826;2022-12-20T02:02:13;3.40;99.90
38798;SHT11;24546;52.240;16.826;2022-12-20T02:07:19;3.50;99.90
38798;SHT11;24546;52.240;16.826;2022-12-20T02:12:41;3.40;99.90
38798;SHT11;24546;52.240;16.826;2022-12-20T02:23:38;3.40;99.90
38798;SHT11;24546;52.240;16.826;2022-12-20T02:34:09;3.50;99.90
38798;SHT11;24546;52.240;16.826;2022-12-20T02:39:12;3.60;99.90
38798;SHT11;24546;52.240;16.826;2022-12-20T02:44:18;3.70;99.90
38798;SHT11;24546;52.240;16.826;2022-12-20T02:49:41;3.70;99.90
38798;SHT11;24546;52.240;16.826;2022-12-20T02:54:43;3.70;99.90
38798;SHT11;24546;52.240;16.826;2022-12-20T03:00:10;3.70;99.90
38798;SHT11;24546;52.240;16.826;2022-12-20T03:05:12;3.60;99.90
38798;SHT11;24546;52.240;16.826;2022-12-20T03:10:15;3.60;99.90
38798;SHT11;24546;52.240;16.826;2022-12-20T03:15:17;3.60;99.90
38798;SHT11;24546;52.240;16.826;2022-12-20T03:20:18;3.50;99.90
38798;SHT11;24546;52.240;16.826;2022-12-20T03:25:19;3.40;99.90
38798;SHT11;24546;52.240;16.826;2022-12-20T03:30:20;3.40;99.90
38798;SHT11;24546;52.240;16.826;2022-12-20T03:35:21;3.40;99.90
38798;SHT11;24546;52.240;16.826;2022-12-20T03:40:22;3.50;99.90
38798;SHT11;24546;52.240;16.826;2022-12-20T03:45:24;3.50;99.90
38798;SHT11;24546;52.240;16.826;2022-12-20T03:50:25;3.50;99.90
38798;SHT11;24546;52.240;16.826;2022-12-20T03:55:26;3.50;99.90
38798;SHT11;24546;52.240;16.826;2022-12-20T04:00:27;3.60;99.90
38798;SHT11;24546;52.240;16.826;2022-12-20T04:05:38;3.60;99.90
38798;SHT11;24546;52.240;16.826;2022-12-20T04:10:40;3.60;99.90
38798;SHT11;24546;52.240;16.826;2022-12-20T04:16:07;3.70;99.90
38798;SHT11;24546;52.240;16.826;2022-12-20T04:21:09;3.70;99.90
38798;SHT11;24546;52.240;16.826;2022-12-20T04:26:14;3.80;99.90
38798;SHT11;24546;52.240;16.826;2022-12-20T04:31:15;3.80;99.90
38798;SHT11;24546;52.240;16.826;2022-12-20T04:36:16;3.80;99.90
38798;SHT11;24546;52.240;16.826;2022-12-20T04:41:18;3.80;99.90
38798;SHT11;24546;52.240;16.826;2022-12-20T04:46:31;3.80;99.90
38798;SHT11;24546;52.240;16.826;2022-12-20T04:51:34;3.90;99.90
38798;SHT11;24546;52.240;16.826;2022-12-20T04:56:35;3.80;99.90
38798;SHT11;24546;52.240;16.826;2022-12-20T05:01:42;3.90;99.90
38798;SHT11;24546;52.240;16.826;2022-12-20T05:06:44;3.90;99.90
38798;SHT11;24546;52.240;16.826;2022-12-20T05:11:46;3.90;99.90
38798;SHT11;24546;52.240;16.826;2022-12-20T05:16:47;3.90;99.90
38798;SHT11;24546;52.240;16.826;2022-12-20T05:21:48;3.80;99.90
38798;SHT11;24546;52.240;16.826;2022-12-20T05:27:11;3.90;99.90
38798;SHT11;24546;52.240;16.826;2022-12-20T05:32:12;3.90;99.90
38798;SHT11;24546;52.240;16.826;2022-12-20T05:37:16;3.90;99.90
38798;SHT11;24546;52.240;16.826;2022-12-20T05:42:17;4.00;99.90
38798;SHT11;24546;52.240;16.826;2022-12-20T05:47:19;3.90;99.90
38798;SHT11;24546;52.240;16.826;2022-12-20T05:52:20;3.80;99.90
38798;SHT11;24546;52.240;16.826;2022-12-20T05:57:21;3.90;99.90
38798;SHT11;24546;52.240;16.826;2022-12-20T06:02:22;3.70;99.90
38798;SHT11;24546;52.240;16.826;2022-12-20T06:07:29;3.60;99.90
38798;SHT11;24546;52.240;16.826;2022-12-20T06:12:33;3.50;99.90
38798;SHT11;24546;52.240;16.826;2022-12-20T06:17:34;3.50;99.90
38798;SHT11;24546;52.240;16.826;2022-12-20T06:22:36;3.40;99.90
38798;SHT11;24546;52.240;16.826;2022-12-20T06:27:38;3.40;99.90
38798;SHT11;24546;52.240;16.826;2022-12-20T06:32:44;3.30;99.90
38798;SHT11;24546;52.240;16.826;2022-12-20T06:37:46;3.40;99.90
38798;SHT11;24546;52.240;16.826;2022-12-20T06:42:47;3.40;99.90
38798;SHT11;24546;52.240;16.826;2022-12-20T06:47:50;3.40;99.90
38798;SHT11;24546;52.240;16.826;2022-12-20T06:52:51;3.50;99.90
38798;SHT11;24546;52.240;16.826;2022-12-20T06:57:52;3.40;99.90
38798;SHT11;24546;52.240;16.826;2022-12-20T07:02:55;3.50;99.90
38798;SHT11;24546;52.240;16.826;2022-12-20T07:07:56;3.50;99.90
38798;SHT11;24546;52.240;16.826;2022-12-20T07:12:57;3.50;99.90
38798;SHT11;24546;52.240;16.826;2022-12-20T07:17:58;3.50;99.90
38798;SHT11;24546;52.240;16.826;2022-12-20T07:22:59;3.40;99.90
38798;SHT11;24546;52.240;16.826;2022-12-20T07:28:01;3.40;99.90
38798;SHT11;24546;52.240;16.826;2022-12-20T07:33:02;3.40;99.90
38798;SHT11;24546;52.240;16.826;2022-12-20T07:38:03;3.40;99.90
38798;SHT11;24546;52.240;16.826;2022-12-20T07:43:04;3.30;99.90
38798;SHT11;24546;52.240;16.826;2022-12-20T07:48:05;3.30;99.90
38798;SHT11;24546;52.240;16.826;2022-12-20T07:53:07;3.30;99.90
38798;SHT11;24546;52.240;16.826;2022-12-20T07:58:10;3.30;99.90
38798;SHT11;24546;52.240;16.826;2022-12-20T08:03:29;3.30;99.90
38798;SHT11;24546;52.240;16.826;2022-12-20T08:08:34;3.30;99.90
38798;SHT11;24546;52.240;16.826;2022-12-20T08:13:36;3.40;99.90
38798;SHT11;24546;52.240;16.826;2022-12-20T08:18:37;3.40;99.90
38798;SHT11;24546;52.240;16.826;2022-12-20T08:23:38;3.60;99.90
38798;SHT11;24546;52.240;16.826;2022-12-20T08:28:39;3.60;99.90
38798;SHT11;24546;52.240;16.826;2022-12-20T08:33:40;3.70;99.90
38798;SHT11;24546;52.240;16.826;2022-12-20T08:38:41;3.70;99.90
38798;SHT11;24546;52.240;16.826;2022-12-20T08:43:42;3.90;99.90
38798;SHT11;24546;52.240;16.826;2022-12-20T08:48:43;3.90;99.90
38798;SHT11;24546;52.240;16.826;2022-12-20T08:53:44;3.80;99.90
38798;SHT11;24546;52.240;16.826;2022-12-20T08:58:45;3.90;99.90
38798;SHT11;24546;52.240;16.826;2022-12-20T09:03:47;4.10;99.90
38798;SHT11;24546;52.240;16.826;2022-12-20T09:08:48;4.10;99.90
38798;SHT11;24546;52.240;16.826;2022-12-20T09:13:51;4.10;99.90
38798;SHT11;24546;52.240;16.826;2022-12-20T09:18:55;4.20;99.90
38798;SHT11;24546;52.240;16.826;2022-12-20T09:23:56;4.40;99.90
38798;SHT11;24546;52.240;16.826;2022-12-20T09:28:57;4.60;99.90
38798;SHT11;24546;52.240;16.826;2022-12-20T09:33:59;4.50;99.90
38798;SHT11;24546;52.240;16.826;2022-12-20T09:39:00;4.60;99.90
38798;SHT11;24546;52.240;16.826;2022-12-20T09:49:25;4.70;99.90
38798;SHT11;24546;52.240;16.826;2022-12-20T09:54:54;4.80;99.90
38798;SHT11;24546;52.240;16.826;2022-12-20T09:59:51;4.90;99.90
38798;SHT11;24546;52.240;16.826;2022-12-20T10:04:56;4.80;99.90
38798;SHT11;24546;52.240;16.826;2022-12-20T10:15:24;4.90;99.90
38798;SHT11;24546;52.240;16.826;2022-12-20T10:26:11;4.90;99.90
38798;SHT11;24546;52.240;16.826;2022-12-20T10:31:15;4.90;99.90
38798;SHT11;24546;52.240;16.826;2022-12-20T10:36:25;5.30;99.90
38798;SHT11;24546;52.240;16.826;2022-12-20T10:41:33;5.20;99.90
38798;SHT11;24546;52.240;16.826;2022-12-20T10:46:56;5.40;99.90
38798;SHT11;24546;52.240;16.826;2022-12-20T10:52:11;5.60;99.90
38798;SHT11;24546;52.240;16.826;2022-12-20T10:57:23;5.60;99.90
38798;SHT11;24546;52.240;16.826;2022-12-20T11:07:32;5.70;99.90
38798;SHT11;24546;52.240;16.826;2022-12-20T11:12:33;5.90;99.90
38798;SHT11;24546;52.240;16.826;2022-12-20T11:17:44;6.10;99.90
38798;SHT11;24546;52.240;16.826;2022-12-20T12:00:14;6.50;99.90
38798;SHT11;24546;52.240;16.826;2022-12-20T12:05:46;6.50;99.90
38798;SHT11;24546;52.240;16.826;2022-12-20T12:11:11;6.40;99.90
38798;SHT11;24546;52.240;16.826;2022-12-20T12:16:27;6.30;99.90
38798;SHT11;24546;52.240;16.826;2022-12-20T12:21:46;6.30;99.90
38798;SHT11;24546;52.240;16.826;2022-12-20T12:26:49;6.40;99.90
38798;SHT11;24546;52.240;16.826;2022-12-20T12:32:00;6.50;99.90
38798;SHT11;24546;52.240;16.826;2022-12-20T12:37:32;6.50;99.90
38798;SHT11;24546;52.240;16.826;2022-12-20T12:48:47;6.70;99.90
38798;SHT11;24546;52.240;16.826;2022-12-20T12:53:51;6.50;99.90
38798;SHT11;24546;52.240;16.826;2022-12-20T13:04:22;6.40;99.90
38798;SHT11;24546;52.240;16.826;2022-12-20T13:45:45;6.40;99.90
38798;SHT11;24546;52.240;16.826;2022-12-20T13:50:51;6.30;99.90
38798;SHT11;24546;52.240;16.826;2022-12-20T13:55:53;6.20;99.90
38798;SHT11;24546;52.240;16.826;2022-12-20T14:01:04;6.10;99.90
38798;SHT11;24546;52.240;16.826;2022-12-20T14:06:09;5.90;99.90
38798;SHT11;24546;52.240;16.826;2022-12-20T14:11:14;6.00;99.90
38798;SHT11;24546;52.240;16.826;2022-12-20T14:16:17;5.90;99.90
38798;SHT11;24546;52.240;16.826;2022-12-20T14:21:18;5.90;99.90
38798;SHT11;24546;52.240;16.826;2022-12-20T14:26:24;5.80;99.90
38798;SHT11;24546;52.240;16.826;2022-12-20T14:36:33;5.70;99.90
38798;SHT11;24546;52.240;16.826;2022-12-20T14:41:39;5.60;99.90
38798;SHT11;24546;52.240;16.826;2022-12-20T14:46:49;5.50;99.90
38798;SHT11;24546;52.240;16.826;2022-12-20T14:51:54;5.50;99.90
38798;SHT11;24546;52.240;16.826;2022-12-20T14:57:10;5.50;99.90
38798;SHT11;24546;52.240;16.826;2022-12-20T15:02:44;5.40;99.90
38798;SHT11;24546;52.240;16.826;2022-12-20T15:07:46;5.40;99.90
38798;SHT11;24546;52.240;16.826;2022-12-20T15:12:47;5.30;99.90
38798;SHT11;24546;52.240;16.826;2022-12-20T15:17:48;5.20;99.90
38798;SHT11;24546;52.240;16.826;2022-12-20T15:22:48;5.20;99.90
38798;SHT11;24546;52.240;16.826;2022-12-20T15:27:49;5.30;99.90
38798;SHT11;24546;52.240;16.826;2022-12-20T15:32:50;5.30;99.90
38798;SHT11;24546;52.240;16.826;2022-12-20T15:37:51;5.40;99.90
38798;SHT11;24546;52.240;16.826;2022-12-20T15:42:52;5.30;99.90
38798;SHT11;24546;52.240;16.826;2022-12-20T15:47:53;5.40;99.90
38798;SHT11;24546;52.240;16.826;2022-12-20T15:52:54;5.40;99.90
38798;SHT11;24546;52.240;16.826;2022-12-20T15:57:56;5.30;99.90
38798;SHT11;24546;52.240;16.826;2022-12-20T16:02:56;5.30;99.90
38798;SHT11;24546;52.240;16.826;2022-12-20T16:07:58;5.30;99.90
38798;SHT11;24546;52.240;16.826;2022-12-20T16:13:00;5.30;99.90
38798;SHT11;24546;52.240;16.826;2022-12-20T16:18:01;5.20;99.90
38798;SHT11;24546;52.240;16.826;2022-12-20T16:23:02;5.10;99.90
38798;SHT11;24546;52.240;16.826;2022-12-20T16:28:03;5.10;99.90
38798;SHT11;24546;52.240;16.826;2022-12-20T16:33:05;5.00;99.90
38798;SHT11;24546;52.240;16.826;2022-12-20T16:38:07;5.10;99.90
38798;SHT11;24546;52.240;16.826;2022-12-20T16:43:12;5.00;99.90
38798;SHT11;24546;52.240;16.826;2022-12-20T16:48:14;5.00;99.90
38798;SHT11;24546;52.240;16.826;2022-12-20T16:53:15;5.00;99.90
38798;SHT11;24546;52.240;16.826;2022-12-20T16:58:16;5.00;99.90
38798;SHT11;24546;52.240;16.826;2022-12-20T17:03:17;4.80;99.90
38798;SHT11;24546;52.240;16.826;2022-12-20T17:08:18;5.00;99.90
38798;SHT11;24546;52.240;16.826;2022-12-20T17:13:19;5.10;99.90
38798;SHT11;24546;52.240;16.826;2022-12-20T17:18:26;5.00;99.90
38798;SHT11;24546;52.240;16.826;2022-12-20T17:23:27;4.90;99.90
38798;SHT11;24546;52.240;16.826;2022-12-20T17:28:28;4.80;99.90
38798;SHT11;24546;52.240;16.826;2022-12-20T17:33:29;4.70;99.90
38798;SHT11;24546;52.240;16.826;2022-12-20T17:38:30;4.80;99.90
38798;SHT11;24546;52.240;16.826;2022-12-20T17:43:31;4.90;99.90
38798;SHT11;24546;52.240;16.826;2022-12-20T17:48:32;4.90;99.90
38798;SHT11;24546;52.240;16.826;2022-12-20T17:53:33;4.90;99.90
38798;SHT11;24546;52.240;16.826;2022-12-20T17:58:34;4.80;99.90
38798;SHT11;24546;52.240;16.826;2022-12-20T18:03:35;4.80;99.90
38798;SHT11;24546;52.240;16.826;2022-12-20T18:08:36;4.60;99.90
38798;SHT11;24546;52.240;16.826;2022-12-20T18:13:41;4.80;99.90
38798;SHT11;24546;52.240;16.826;2022-12-20T18:18:43;4.80;99.90
38798;SHT11;24546;52.240;16.826;2022-12-20T18:23:45;4.80;99.90
38798;SHT11;24546;52.240;16.826;2022-12-20T18:28:49;5.00;99.90
38798;SHT11;24546;52.240;16.826;2022-12-20T18:33:51;4.90;99.90
38798;SHT11;24546;52.240;16.826;2022-12-20T18:38:53;5.00;99.90
38798;SHT11;24546;52.240;16.826;2022-12-20T18:43:58;5.00;99.90
38798;SHT11;24546;52.240;16.826;2022-12-20T18:49:00;5.10;99.90
38798;SHT11;24546;52.240;16.826;2022-12-20T18:54:01;5.10;99.90
38798;SHT11;24546;52.240;16.826;2022-12-20T18:59:04;5.10;99.90
38798;SHT11;24546;52.240;16.826;2022-12-20T19:04:06;5.10;99.90
38798;SHT11;24546;52.240;16.826;2022-12-20T19:09:12;5.10;99.90
38798;SHT11;24546;52.240;16.826;2022-12-20T19:14:14;5.00;99.90
38798;SHT11;24546;52.240;16.826;2022-12-20T19:19:15;5.00;99.90
38798;SHT11;24546;52.240;16.826;2022-12-20T19:24:17;4.90;99.90
38798;SHT11;24546;52.240;16.826;2022-12-20T19:29:18;4.90;99.90
38798;SHT11;24546;52.240;16.826;2022-12-20T19:34:19;4.90;99.90
38798;SHT11;24546;52.240;16.826;2022-12-20T19:39:21;5.10;99.90
38798;SHT11;24546;52.240;16.826;2022-12-20T19:44:22;5.00;99.90
38798;SHT11;24546;52.240;16.826;2022-12-20T19:49:23;5.10;99.90
38798;SHT11;24546;52.240;16.826;2022-12-20T19:54:24;5.10;99.90
38798;SHT11;24546;52.240;16.826;2022-12-20T19:59:25;5.20;99.90
38798;SHT11;24546;52.240;16.826;2022-12-20T20:04:27;5.20;99.90
38798;SHT11;24546;52.240;16.826;2022-12-20T20:09:28;5.10;99.90
38798;SHT11;24546;52.240;16.826;2022-12-20T20:14:29;5.10;99.90
38798;SHT11;24546;52.240;16.826;2022-12-20T20:19:31;5.10;99.90
38798;SHT11;24546;52.240;16.826;2022-12-20T20:24:32;5.10;99.90
38798;SHT11;24546;52.240;16.826;2022-12-20T20:29:33;4.90;99.90
38798;SHT11;24546;52.240;16.826;2022-12-20T20:34:34;5.00;99.90
38798;SHT11;24546;52.240;16.826;2022-12-20T20:39:35;5.10;99.90
38798;SHT11;24546;52.240;16.826;2022-12-20T20:44:36;5.10;99.90
38798;SHT11;24546;52.240;16.826;2022-12-20T20:49:37;5.10;99.90
38798;SHT11;24546;52.240;16.826;2022-12-20T20:54:38;5.10;99.90
38798;SHT11;24546;52.240;16.826;2022-12-20T20:59:39;5.10;99.90
38798;SHT11;24546;52.240;16.826;2022-12-20T21:04:40;5.10;99.90
38798;SHT11;24546;52.240;16.826;2022-12-20T21:09:40;5.10;99.90
38798;SHT11;24546;52.240;16.826;2022-12-20T21:14:42;5.10;99.90
38798;SHT11;24546;52.240;16.826;2022-12-20T21:19:43;5.10;99.90
38798;SHT11;24546;52.240;16.826;2022-12-20T21:24:44;5.00;99.90
38798;SHT11;24546;52.240;16.826;2022-12-20T21:29:45;5.10;99.90
38798;SHT11;24546;52.240;16.826;2022-12-20T21:34:46;5.00;99.90
38798;SHT11;24546;52.240;16.826;2022-12-20T21:39:47;5.00;99.90
38798;SHT11;24546;52.240;16.826;2022-12-20T21:44:48;5.00;99.90
38798;SHT11;24546;52.240;16.826;2022-12-20T21:49:49;5.00;99.90
38798;SHT11;24546;52.240;16.826;2022-12-20T21:54:50;5.00;99.90
38798;SHT11;24546;52.240;16.826;2022-12-20T21:59:51;4.90;99.90
38798;SHT11;24546;52.240;16.826;2022-12-20T22:04:52;4.90;99.90
38798;SHT11;24546;52.240;16.826;2022-12-20T22:09:53;4.90;99.90
38798;SHT11;24546;52.240;16.826;2022-12-20T22:14:54;4.70;99.90
38798;SHT11;24546;52.240;16.826;2022-12-20T22:19:55;4.90;99.90
38798;SHT11;24546;52.240;16.826;2022-12-20T22:24:57;4.80;99.90
38798;SHT11;24546;52.240;16.826;2022-12-20T22:29:58;4.90;99.90
38798;SHT11;24546;52.240;16.826;2022-12-20T22:34:59;4.90;99.90
38798;SHT11;24546;52.240;16.826;2022-12-20T22:40:00;5.00;99.90
38798;SHT11;24546;52.240;16.826;2022-12-20T22:45:01;5.00;99.90
38798;SHT11;24546;52.240;16.826;2022-12-20T22:50:03;4.90;99.90
38798;SHT11;24546;52.240;16.826;2022-12-20T22:55:05;4.90;99.90
38798;SHT11;24546;52.240;16.826;2022-12-20T23:00:07;5.00;99.90
38798;SHT11;24546;52.240;16.826;2022-12-20T23:05:12;5.10;99.90
38798;SHT11;24546;52.240;16.826;2022-12-20T23:10:16;5.10;99.90
38798;SHT11;24546;52.240;16.826;2022-12-20T23:15:36;5.20;99.90
38798;SHT11;24546;52.240;16.826;2022-12-20T23:20:40;5.10;99.90
38798;SHT11;24546;52.240;16.826;2022-12-20T23:26:14;5.30;99.90
38798;SHT11;24546;52.240;16.826;2022-12-20T23:31:15;5.10;99.90
38798;SHT11;24546;52.240;16.826;2022-12-20T23:36:16;5.00;99.90
38798;SHT11;24546;52.240;16.826;2022-12-20T23:41:17;4.90;99.90
38798;SHT11;24546;52.240;16.826;2022-12-20T23:46:19;4.90;99.90
38798;SHT11;24546;52.240;16.826;2022-12-20T23:51:21;4.80;99.90
38798;SHT11;24546;52.240;16.826;2022-12-20T23:56:22;4.80;99.90
